createdAt,value
2019-05-14T00:00:41.644Z,2.10
2019-05-14T00:03:08.688Z,2.03
2019-05-14T00:05:35.951Z,2.00
2019-05-14T00:08:03.194Z,1.80
2019-05-14T00:10:32.143Z,1.97
2019-05-14T00:13:01.502Z,2.00
2019-05-14T00:15:28.562Z,1.90
2019-05-14T00:17:55.824Z,2.00
2019-05-14T00:20:23.090Z,2.30
2019-05-14T00:22:52.157Z,2.00
2019-05-14T00:25:19.321Z,1.93
2019-05-14T00:27:46.569Z,1.60
2019-05-14T00:30:13.902Z,2.00
2019-05-14T00:32:41.609Z,2.27
2019-05-14T00:35:10.987Z,2.07
2019-05-14T00:37:37.954Z,2.17
2019-05-14T00:40:05.372Z,1.67
2019-05-14T00:42:32.631Z,1.80
2019-05-14T00:45:01.249Z,2.37
2019-05-14T00:47:30.888Z,1.80
2019-05-14T00:49:57.641Z,1.80
2019-05-14T00:52:24.908Z,2.10
2019-05-14T00:54:52.421Z,2.03
2019-05-14T00:57:21.148Z,1.80
2019-05-14T00:59:48.510Z,2.20
2019-05-14T01:02:15.758Z,1.70
2019-05-14T01:04:43.093Z,2.17
2019-05-14T01:07:11.961Z,2.20
2019-05-14T01:09:41.835Z,2.60
2019-05-14T01:12:08.754Z,2.00
2019-05-14T01:14:36.028Z,2.00
2019-05-14T01:17:03.271Z,1.70
2019-05-14T01:19:31.518Z,2.00
2019-05-14T01:21:59.055Z,1.87
2019-05-14T01:24:26.325Z,1.87
2019-05-14T01:26:53.565Z,2.30
2019-05-14T01:29:21.919Z,2.70
2019-05-14T01:31:49.283Z,1.60
2019-05-14T01:34:16.803Z,2.20
2019-05-14T01:36:44.049Z,2.00
2019-05-14T01:39:12.102Z,2.30
2019-05-14T01:41:39.539Z,2.20
2019-05-14T01:44:06.811Z,2.00
2019-05-14T01:46:34.058Z,2.30
2019-05-14T01:49:01.720Z,1.90
2019-05-14T01:51:31.387Z,1.93
2019-05-14T01:53:58.007Z,1.73
2019-05-14T01:56:25.248Z,1.87
2019-05-14T01:58:52.513Z,1.83
2019-05-14T02:01:21.829Z,2.00
2019-05-14T02:03:48.813Z,2.30
2019-05-14T02:06:16.059Z,2.00
2019-05-14T02:08:43.469Z,1.80
2019-05-14T02:11:12.095Z,1.67
2019-05-14T02:13:41.387Z,1.80
2019-05-14T02:16:08.820Z,2.17
2019-05-14T02:18:36.328Z,1.97
2019-05-14T02:21:03.596Z,1.83
2019-05-14T02:23:31.963Z,1.83
2019-05-14T02:26:02.228Z,2.00
2019-05-14T02:28:28.764Z,2.27
2019-05-14T02:30:59.033Z,2.10
2019-05-14T02:33:24.995Z,1.80
2019-05-14T02:35:52.343Z,2.20
2019-05-14T02:38:19.695Z,2.20
2019-05-14T02:40:49.450Z,2.30
2019-05-14T02:43:19.609Z,2.50
2019-05-14T02:46:02.161Z,1.57
2019-05-14T02:48:14.223Z,2.10
2019-05-14T02:50:41.775Z,1.77
2019-05-14T02:53:10.345Z,1.90
2019-05-14T02:55:39.070Z,1.57
2019-05-14T02:58:09.742Z,1.50
2019-05-14T03:00:35.403Z,2.00
2019-05-14T03:03:02.656Z,1.67
2019-05-14T03:05:30.189Z,1.83
2019-05-14T03:07:59.902Z,1.70
2019-05-14T03:10:30.084Z,1.60
2019-05-14T03:12:58.836Z,2.00
2019-05-14T03:15:25.226Z,2.43
2019-05-14T03:17:52.738Z,1.70
2019-05-14T03:20:20.003Z,2.40
2019-05-14T03:23:02.475Z,2.07
2019-05-14T03:25:19.187Z,1.77
2019-05-14T03:27:45.428Z,2.00
2019-05-14T03:30:13.640Z,1.90
2019-05-14T03:32:42.978Z,1.73
2019-05-14T03:35:13.423Z,1.60
2019-05-14T03:37:39.862Z,1.97
2019-05-14T03:40:09.360Z,1.70
2019-05-14T03:42:39.638Z,1.80
2019-05-14T03:45:08.444Z,1.70
2019-05-14T03:47:34.550Z,2.13
2019-05-14T03:50:01.809Z,2.00
2019-05-14T03:52:29.527Z,3.20
2019-05-14T03:55:01.157Z,2.07
2019-05-14T03:57:28.986Z,1.70
2019-05-14T03:59:55.060Z,1.90
2019-05-14T04:02:22.472Z,1.90
2019-05-14T04:04:50.334Z,2.50
2019-05-14T04:07:19.557Z,1.57
2019-05-14T04:09:49.354Z,1.80
2019-05-14T04:12:19.208Z,1.50
2019-05-14T04:14:50.237Z,1.80
2019-05-14T04:17:31.558Z,1.53
2019-05-14T04:19:50.082Z,1.93
2019-05-14T04:22:19.214Z,1.90
2019-05-14T04:24:49.659Z,1.60
2019-05-14T04:27:20.300Z,2.00
2019-05-14T04:29:49.866Z,2.30
2019-05-14T04:32:19.964Z,1.80
2019-05-14T04:34:49.875Z,1.97
2019-05-14T04:37:19.964Z,1.87
2019-05-14T04:39:45.628Z,2.00
2019-05-14T04:42:12.983Z,2.10
2019-05-14T04:44:40.805Z,1.77
2019-05-14T04:47:22.897Z,1.90
2019-05-14T04:49:39.854Z,1.97
2019-05-14T04:52:09.698Z,2.70
2019-05-14T04:54:35.267Z,1.80
2019-05-14T04:57:02.543Z,1.90
2019-05-14T04:59:30.208Z,1.60
2019-05-14T05:02:00.051Z,1.70
2019-05-14T05:04:29.713Z,1.50
2019-05-14T05:06:59.016Z,1.60
2019-05-14T05:09:24.726Z,1.70
2019-05-14T05:11:52.003Z,1.73
2019-05-14T05:14:20.400Z,2.10
2019-05-14T05:16:49.049Z,2.27
2019-05-14T05:19:19.430Z,2.07
2019-05-14T05:21:45.497Z,2.37
2019-05-14T05:24:13.336Z,1.83
2019-05-14T05:26:40.582Z,1.77
2019-05-14T05:29:10.362Z,2.10
2019-05-14T05:31:38.087Z,2.37
2019-05-14T05:34:05.566Z,1.67
2019-05-14T05:36:33.606Z,2.37
2019-05-14T05:39:00.893Z,2.20
2019-05-14T05:41:28.382Z,2.23
2019-05-14T05:43:55.647Z,2.33
2019-05-14T05:46:22.903Z,1.83
2019-05-14T05:48:50.500Z,2.33
2019-05-14T05:51:18.827Z,2.30
2019-05-14T05:53:48.344Z,2.20
2019-05-14T05:56:15.354Z,2.20
2019-05-14T05:58:42.623Z,2.30
2019-05-14T06:01:10.119Z,2.80
2019-05-14T06:03:39.225Z,2.93
2019-05-14T06:06:13.291Z,2.10
2019-05-14T06:08:35.350Z,2.43
2019-05-14T06:11:02.606Z,2.40
2019-05-14T06:13:30.126Z,2.50
2019-05-14T06:15:59.118Z,2.40
2019-05-14T06:18:28.567Z,2.53
2019-05-14T06:20:55.640Z,2.60
2019-05-14T06:23:23.254Z,2.20
2019-05-14T06:25:50.553Z,2.83
2019-05-14T06:28:20.994Z,2.50
2019-05-14T06:30:48.422Z,2.30
2019-05-14T06:33:16.133Z,2.70
2019-05-14T06:35:43.644Z,2.33
2019-05-14T06:38:10.930Z,2.27
2019-05-14T06:40:39.528Z,3.07
2019-05-14T06:43:09.112Z,2.50
2019-05-14T06:45:38.245Z,2.27
2019-05-14T06:48:04.962Z,2.17
2019-05-14T06:50:32.507Z,2.10
2019-05-14T06:52:59.755Z,2.30
2019-05-14T06:55:28.403Z,2.67
2019-05-14T06:57:55.719Z,2.60
2019-05-14T07:00:23.051Z,2.27
2019-05-14T07:02:50.296Z,2.20
2019-05-14T07:05:18.803Z,2.00
2019-05-14T07:07:49.094Z,2.40
2019-05-14T07:10:15.503Z,2.20
2019-05-14T07:12:42.750Z,2.20
2019-05-14T07:15:10.116Z,3.60
2019-05-14T07:17:38.376Z,2.20
2019-05-14T07:20:08.904Z,2.23
2019-05-14T07:22:38.666Z,2.43
2019-05-14T07:25:06.217Z,2.77
2019-05-14T07:27:33.458Z,2.30
2019-05-14T07:30:00.702Z,2.30
2019-05-14T07:32:28.759Z,2.00
2019-05-14T07:34:56.194Z,2.13
2019-05-14T07:37:23.462Z,2.43
2019-05-14T07:39:50.701Z,2.03
2019-05-14T07:42:18.457Z,2.00
2019-05-14T07:44:48.318Z,2.00
2019-05-14T07:47:15.023Z,1.90
2019-05-14T07:49:42.268Z,2.43
2019-05-14T07:52:09.621Z,2.00
2019-05-14T07:54:38.860Z,2.17
2019-05-14T07:57:08.463Z,2.00
2019-05-14T07:59:35.065Z,1.80
2019-05-14T08:02:02.326Z,2.00
2019-05-14T08:04:29.586Z,2.03
2019-05-14T08:06:58.214Z,2.00
2019-05-14T08:09:28.079Z,1.87
2019-05-14T08:11:54.873Z,2.00
2019-05-14T08:14:22.118Z,1.83
2019-05-14T08:16:49.470Z,2.63
2019-05-14T08:19:24.370Z,2.00
2019-05-14T08:21:47.985Z,1.87
2019-05-14T08:24:15.384Z,2.23
2019-05-14T08:26:44.224Z,2.07
2019-05-14T08:29:11.572Z,2.30
2019-05-14T08:31:38.838Z,2.30
2019-05-14T08:34:06.691Z,4.73
2019-05-14T08:36:35.066Z,2.93
2019-05-14T08:39:02.570Z,1.90
2019-05-14T08:41:30.072Z,2.03
2019-05-14T08:43:59.512Z,2.07
2019-05-14T08:46:28.360Z,2.40
2019-05-14T08:48:58.393Z,2.37
2019-05-14T08:51:24.742Z,2.60
2019-05-14T08:53:52.276Z,2.33
2019-05-14T08:56:19.517Z,2.53
2019-05-14T08:58:49.120Z,2.67
2019-05-14T09:01:15.746Z,2.57
2019-05-14T09:03:43.588Z,2.43
2019-05-14T09:06:10.957Z,2.10
2019-05-14T09:08:38.967Z,2.23
2019-05-14T09:11:09.743Z,2.30
2019-05-14T09:13:38.152Z,2.10
2019-05-14T09:16:05.090Z,2.20
2019-05-14T09:18:32.361Z,2.20
2019-05-14T09:20:59.607Z,2.37
2019-05-14T09:23:28.674Z,2.10
2019-05-14T09:25:58.576Z,2.10
2019-05-14T09:28:25.092Z,2.20
2019-05-14T09:30:52.329Z,1.70
2019-05-14T09:33:23.611Z,1.83
2019-05-14T09:35:49.283Z,2.07
2019-05-14T09:38:18.815Z,1.80
2019-05-14T09:40:48.694Z,2.10
2019-05-14T09:43:14.766Z,2.17
2019-05-14T09:45:42.011Z,2.10
2019-05-14T09:48:09.276Z,2.00
2019-05-14T09:50:38.340Z,2.03
2019-05-14T09:53:05.768Z,2.40
2019-05-14T09:55:33.338Z,2.17
2019-05-14T09:58:00.612Z,3.00
2019-05-14T10:00:27.855Z,1.93
2019-05-14T10:02:55.110Z,2.13
2019-05-14T10:05:22.360Z,2.00
2019-05-14T10:07:49.717Z,1.80
2019-05-14T10:10:19.581Z,1.67
2019-05-14T10:12:55.965Z,1.63
2019-05-14T10:15:15.270Z,2.90
2019-05-14T10:17:42.523Z,1.80
2019-05-14T10:20:10.855Z,2.30
2019-05-14T10:22:39.856Z,2.10
2019-05-14T10:25:09.135Z,2.20
2019-05-14T10:27:36.369Z,2.03
2019-05-14T10:30:05.480Z,1.90
2019-05-14T10:32:32.777Z,1.90
2019-05-14T10:35:00.066Z,2.10
2019-05-14T10:37:28.783Z,2.10
2019-05-14T10:39:58.573Z,1.83
2019-05-14T10:42:25.231Z,2.03
2019-05-14T10:44:52.495Z,1.90
2019-05-14T10:47:19.987Z,2.13
2019-05-14T10:49:47.261Z,1.93
2019-05-14T10:52:14.566Z,1.63
2019-05-14T10:54:55.048Z,2.10
2019-05-14T10:57:10.831Z,1.90
2019-05-14T10:59:38.094Z,1.80
2019-05-14T11:02:05.421Z,2.13
2019-05-14T11:04:34.585Z,1.90
2019-05-14T11:07:01.978Z,1.80
2019-05-14T11:09:29.248Z,1.97
2019-05-14T11:11:58.319Z,1.77
2019-05-14T11:14:25.483Z,1.70
2019-05-14T11:16:52.799Z,2.30
2019-05-14T11:19:20.073Z,1.77
2019-05-14T11:21:48.416Z,1.70
2019-05-14T11:24:15.768Z,2.20
2019-05-14T11:26:43.008Z,1.80
2019-05-14T11:29:10.279Z,2.47
2019-05-14T11:31:39.205Z,2.40
2019-05-14T11:34:08.275Z,2.13
2019-05-14T11:36:35.728Z,2.10
2019-05-14T11:39:04.229Z,2.23
2019-05-14T11:41:31.567Z,1.73
2019-05-14T11:43:59.369Z,2.30
2019-05-14T11:46:40.937Z,1.70
2019-05-14T11:48:56.090Z,2.43
2019-05-14T11:51:46.066Z,2.00
2019-05-14T11:53:52.310Z,1.90
2019-05-14T11:56:19.713Z,2.00
2019-05-14T11:58:47.633Z,2.00
2019-05-14T12:01:15.030Z,2.00
2019-05-14T12:03:42.798Z,1.97
2019-05-14T12:06:10.858Z,2.17
2019-05-14T12:08:41.822Z,1.50
2019-05-14T12:11:08.747Z,1.23
2019-05-14T12:13:39.413Z,2.03
2019-05-14T12:16:08.577Z,1.60
2019-05-14T12:18:41.406Z,2.23
2019-05-14T12:21:05.366Z,1.70
2019-05-14T12:23:33.168Z,2.37
2019-05-14T12:26:01.148Z,1.80
2019-05-14T12:28:29.259Z,1.90
2019-05-14T12:30:58.322Z,1.73
2019-05-14T12:33:29.574Z,2.10
2019-05-14T12:35:55.440Z,1.53
2019-05-14T12:38:22.695Z,2.13
2019-05-14T12:40:50.049Z,1.60
2019-05-14T12:43:18.728Z,1.77
2019-05-14T12:45:46.211Z,1.80
2019-05-14T12:48:13.622Z,1.90
2019-05-14T12:50:40.939Z,1.60
2019-05-14T12:53:08.458Z,1.73
2019-05-14T12:55:35.787Z,1.50
2019-05-14T12:58:03.038Z,1.90
2019-05-14T13:00:30.307Z,1.60
2019-05-14T13:02:58.517Z,1.93
2019-05-14T13:05:26.000Z,2.00
2019-05-14T13:07:53.247Z,1.90
2019-05-14T13:10:20.580Z,1.97
2019-05-14T13:12:48.359Z,1.50
2019-05-14T13:15:16.037Z,1.70
2019-05-14T13:17:43.282Z,1.73
2019-05-14T13:20:13.726Z,1.80
2019-05-14T13:22:46.146Z,1.57
2019-05-14T13:25:10.671Z,1.53
2019-05-14T13:27:39.164Z,1.30
2019-05-14T13:30:09.094Z,1.40
2019-05-14T13:32:39.449Z,1.63
2019-05-14T13:35:10.462Z,1.90
2019-05-14T13:37:35.782Z,1.50
2019-05-14T13:40:04.295Z,1.20
2019-05-14T13:42:31.540Z,1.47
2019-05-14T13:44:58.821Z,1.70
2019-05-14T13:47:28.624Z,1.57
2019-05-14T13:49:55.287Z,1.80
2019-05-14T13:52:22.536Z,1.47
2019-05-14T13:54:49.810Z,1.77
2019-05-14T13:57:19.431Z,1.30
2019-05-14T13:59:46.039Z,1.30
2019-05-14T14:02:13.297Z,1.57
2019-05-14T14:04:40.883Z,1.30
2019-05-14T14:07:09.067Z,1.47
2019-05-14T14:09:39.147Z,1.57
2019-05-14T14:12:05.539Z,1.20
2019-05-14T14:14:32.808Z,1.40
2019-05-14T14:17:00.126Z,1.50
2019-05-14T14:19:28.182Z,1.50
2019-05-14T14:21:55.589Z,1.43
2019-05-14T14:24:22.856Z,1.57
2019-05-14T14:26:50.098Z,1.10
2019-05-14T14:29:18.663Z,1.40
2019-05-14T14:31:48.414Z,1.57
2019-05-14T14:34:15.184Z,1.50
2019-05-14T14:36:42.426Z,1.73
2019-05-14T14:39:09.963Z,1.73
2019-05-14T14:41:38.455Z,1.50
2019-05-14T14:44:08.567Z,1.37
2019-05-14T14:46:34.889Z,1.10
2019-05-14T14:49:02.823Z,1.50
2019-05-14T14:51:30.276Z,1.50
2019-05-14T14:54:02.880Z,1.30
2019-05-14T14:56:28.369Z,1.47
2019-05-14T14:58:55.475Z,1.20
2019-05-14T15:01:22.752Z,1.23
2019-05-14T15:03:50.716Z,1.37
2019-05-14T15:06:18.559Z,1.17
2019-05-14T15:08:46.133Z,1.13
2019-05-14T15:11:13.398Z,1.07
2019-05-14T15:13:40.637Z,1.07
2019-05-14T15:16:13.535Z,1.30
2019-05-14T15:18:38.639Z,1.10
2019-05-14T15:21:05.939Z,1.00
2019-05-14T15:23:33.488Z,1.20
2019-05-14T15:26:00.755Z,1.10
2019-05-14T15:28:27.999Z,1.20
2019-05-14T15:30:55.539Z,1.10
2019-05-14T15:33:22.787Z,1.30
2019-05-14T15:35:50.049Z,1.27
2019-05-14T15:38:17.289Z,1.40
2019-05-14T15:40:44.557Z,3.07
2019-05-14T15:43:11.798Z,1.40
2019-05-14T15:45:39.045Z,1.70
2019-05-14T15:48:08.945Z,1.40
2019-05-14T15:50:35.280Z,1.37
2019-05-14T15:53:02.547Z,1.50
2019-05-14T15:55:29.845Z,1.60
2019-05-14T15:57:59.117Z,1.57
2019-05-14T16:00:29.011Z,1.33
2019-05-14T16:02:55.063Z,1.17
2019-05-14T16:05:22.309Z,1.40
2019-05-14T16:07:49.672Z,1.13
2019-05-14T16:10:17.098Z,1.67
2019-05-14T16:12:44.358Z,1.20
2019-05-14T16:15:11.679Z,1.17
2019-05-14T16:17:48.791Z,1.57
2019-05-14T16:20:08.939Z,1.20
2019-05-14T16:22:39.354Z,2.53
2019-05-14T16:25:08.899Z,1.27
2019-05-14T16:27:35.619Z,2.93
2019-05-14T16:30:03.432Z,2.17
2019-05-14T16:32:30.690Z,1.83
2019-05-14T16:34:58.117Z,1.40
2019-05-14T16:37:25.483Z,1.20
2019-05-14T16:39:52.733Z,1.30
2019-05-14T16:42:20.837Z,1.43
2019-05-14T16:44:48.224Z,1.30
2019-05-14T16:47:15.746Z,2.30
2019-05-14T16:49:42.991Z,2.90
2019-05-14T16:52:10.264Z,2.00
2019-05-14T16:54:39.525Z,2.27
2019-05-14T16:57:10.697Z,1.00
2019-05-14T16:59:35.471Z,2.17
2019-05-14T17:02:02.715Z,1.20
2019-05-14T17:04:29.982Z,1.40
2019-05-14T17:06:58.892Z,1.33
2019-05-14T17:09:28.197Z,1.37
2019-05-14T17:11:55.338Z,1.30
2019-05-14T17:14:22.602Z,1.40
2019-05-14T17:16:49.851Z,1.23
2019-05-14T17:19:18.788Z,1.20
2019-05-14T17:21:48.563Z,1.40
2019-05-14T17:24:15.223Z,1.43
2019-05-14T17:26:42.734Z,1.37
2019-05-14T17:29:10.568Z,1.40
2019-05-14T17:31:39.051Z,0.90
2019-05-14T17:34:08.623Z,1.20
2019-05-14T17:36:38.807Z,1.47
2019-05-14T17:39:08.614Z,1.07
2019-05-14T17:41:36.110Z,1.10
2019-05-14T17:44:04.483Z,1.60
2019-05-14T17:46:32.006Z,1.20
2019-05-14T17:48:59.333Z,1.50
2019-05-14T17:51:28.457Z,1.07
2019-05-14T17:53:58.671Z,1.13
2019-05-14T17:56:25.643Z,1.30
2019-05-14T17:58:53.521Z,1.27
2019-05-14T18:01:20.870Z,1.30
2019-05-14T18:03:49.183Z,1.10
2019-05-14T18:06:18.691Z,1.30
2019-05-14T18:08:45.642Z,1.10
2019-05-14T18:11:13.048Z,1.40
2019-05-14T18:13:40.615Z,1.17
2019-05-14T18:16:08.994Z,1.10
2019-05-14T18:18:36.507Z,1.60
2019-05-14T18:21:03.750Z,1.00
2019-05-14T18:23:30.987Z,1.23
2019-05-14T18:26:04.928Z,1.00
2019-05-14T18:28:28.837Z,1.20
2019-05-14T18:30:58.569Z,1.07
2019-05-14T18:33:25.202Z,1.20
2019-05-14T18:35:52.699Z,1.10
2019-05-14T18:38:20.076Z,1.00
2019-05-14T18:40:49.440Z,1.10
2019-05-14T18:43:18.662Z,1.00
2019-05-14T18:45:47.975Z,1.27
2019-05-14T18:48:14.680Z,1.03
2019-05-14T18:50:42.003Z,1.27
2019-05-14T18:53:12.506Z,1.10
2019-05-14T18:55:39.329Z,1.03
2019-05-14T18:58:08.590Z,1.10
2019-05-14T19:00:38.662Z,1.33
2019-05-14T19:03:05.673Z,1.10
2019-05-14T19:05:33.007Z,1.10
2019-05-14T19:08:00.247Z,1.23
2019-05-14T19:10:28.142Z,1.00
2019-05-14T19:12:55.506Z,1.10
2019-05-14T19:15:23.036Z,1.27
2019-05-14T19:17:50.364Z,1.10
2019-05-14T19:20:19.277Z,1.20
2019-05-14T19:22:48.874Z,1.17
2019-05-14T19:25:15.624Z,1.57
2019-05-14T19:27:42.870Z,1.30
2019-05-14T19:30:10.211Z,1.43
2019-05-14T19:32:39.295Z,1.20
2019-05-14T19:35:08.638Z,1.37
2019-05-14T19:37:35.751Z,1.40
2019-05-14T19:40:03.958Z,1.20
2019-05-14T19:42:31.237Z,1.30
2019-05-14T19:44:59.765Z,1.23
2019-05-14T19:47:28.202Z,1.43
2019-05-14T19:49:55.547Z,1.33
2019-05-14T19:52:22.814Z,1.50
2019-05-14T19:54:50.164Z,1.37
2019-05-14T19:57:18.525Z,1.60
2019-05-14T19:59:45.923Z,1.30
2019-05-14T20:02:13.193Z,1.50
2019-05-14T20:04:40.430Z,1.50
2019-05-14T20:07:08.921Z,1.57
2019-05-14T20:09:38.611Z,1.60
2019-05-14T20:12:05.331Z,1.37
2019-05-14T20:14:32.648Z,1.10
2019-05-14T20:17:00.172Z,1.30
2019-05-14T20:19:28.673Z,1.53
2019-05-14T20:21:56.059Z,1.43
2019-05-14T20:24:23.298Z,1.30
2019-05-14T20:27:04.868Z,1.57
2019-05-14T20:29:19.683Z,1.53
2019-05-14T20:31:48.201Z,1.43
2019-05-14T20:34:15.606Z,1.80
2019-05-14T20:36:42.874Z,1.60
2019-05-14T20:39:10.129Z,1.10
2019-05-14T20:41:38.496Z,1.53
2019-05-14T20:44:06.078Z,1.40
2019-05-14T20:46:33.326Z,1.40
2019-05-14T20:49:00.590Z,1.73
2019-05-14T20:51:30.354Z,1.63
2019-05-14T20:53:58.084Z,1.40
2019-05-14T20:56:25.457Z,1.40
2019-05-14T20:58:52.723Z,1.70
2019-05-14T21:01:19.975Z,1.87
2019-05-14T21:03:48.334Z,1.37
2019-05-14T21:06:15.754Z,1.40
2019-05-14T21:08:43.106Z,1.30
2019-05-14T21:11:10.599Z,1.67
2019-05-14T21:13:37.864Z,1.67
2019-05-14T21:16:05.130Z,1.30
2019-05-14T21:18:35.318Z,1.40
2019-05-14T21:21:01.431Z,1.43
2019-05-14T21:23:29.975Z,1.37
2019-05-14T21:25:57.323Z,1.40
2019-05-14T21:28:24.565Z,1.50
2019-05-14T21:30:51.822Z,1.60
2019-05-14T21:33:19.345Z,1.40
2019-05-14T21:35:48.501Z,1.37
2019-05-14T21:38:15.574Z,1.80
2019-05-14T21:40:43.075Z,1.87
2019-05-14T21:43:11.335Z,1.70
2019-05-14T21:45:38.758Z,1.60
2019-05-14T21:48:08.488Z,1.60
2019-05-14T21:50:35.250Z,1.43
2019-05-14T21:53:02.523Z,1.63
2019-05-14T21:55:29.774Z,1.50
2019-05-14T21:57:57.428Z,1.60
2019-05-14T22:00:41.511Z,1.67
2019-05-14T22:03:05.867Z,1.57
2019-05-14T22:05:33.119Z,1.63
2019-05-14T22:08:00.384Z,1.63
2019-05-14T22:10:28.745Z,1.33
2019-05-14T22:12:58.358Z,1.60
2019-05-14T22:15:26.051Z,1.70
2019-05-14T22:17:53.552Z,1.70
2019-05-14T22:20:20.882Z,1.60
2019-05-14T22:22:48.810Z,1.53
2019-05-14T22:25:16.079Z,1.40
2019-05-14T22:27:43.329Z,1.50
2019-05-14T22:30:10.664Z,1.57
2019-05-14T22:32:38.449Z,1.90
2019-05-14T22:35:08.563Z,1.40
2019-05-14T22:37:35.183Z,1.27
2019-05-14T22:40:02.534Z,1.50
2019-05-14T22:42:29.778Z,1.90
2019-05-14T22:44:58.323Z,1.70
2019-05-14T22:47:25.769Z,1.70
2019-05-14T22:49:53.039Z,1.73
2019-05-14T22:52:20.555Z,1.93
2019-05-14T22:54:49.090Z,1.20
2019-05-14T22:57:16.443Z,1.50
2019-05-14T22:59:43.946Z,1.50
2019-05-14T23:02:11.494Z,1.60
2019-05-14T23:04:38.842Z,1.73
2019-05-14T23:07:08.090Z,1.90
2019-05-14T23:09:35.062Z,1.43
2019-05-14T23:12:02.353Z,1.97
2019-05-14T23:14:29.642Z,1.47
2019-05-14T23:16:56.908Z,1.50
2019-05-14T23:19:24.413Z,1.80
2019-05-14T23:21:51.680Z,1.70
2019-05-14T23:24:19.110Z,1.70
2019-05-14T23:26:49.012Z,1.40
2019-05-14T23:29:15.598Z,1.70
2019-05-14T23:31:42.880Z,1.30
2019-05-14T23:34:10.195Z,1.83
2019-05-14T23:36:38.830Z,1.90
2019-05-14T23:39:08.679Z,1.73
2019-05-14T23:41:38.167Z,1.43
2019-05-14T23:44:04.557Z,1.50
2019-05-14T23:46:31.867Z,1.60
2019-05-14T23:48:59.300Z,1.70
2019-05-14T23:51:28.854Z,1.50
2019-05-14T23:53:55.786Z,2.00
2019-05-14T23:56:23.050Z,1.57
2019-05-14T23:58:55.887Z,1.60
